Observations for Trim Patrick St
| Time | AQI | Temp °C | Hum % | Pres Pa | CO μg/m³ | H₂S μg/m³ | NO μg/m³ | NO₂ μg/m³ | O₃ μg/m³ | SO₂ μg/m³ | PM1 μg/m³ | PM2.5 μg/m³ | PM10 μg/m³ |
|---|---|---|---|---|---|---|---|---|---|---|---|---|---|
| Friday 31 July 2026 | |||||||||||||
| 18:04 | 3 | 25.6 | 37 | 68,949 | 0 | 2.31 | 1.23 | 10.96 | 81.38 | 9.1 | 2.86 | 8.84 | 9.72 |
| 18:03 | 3 | 25.7 | 37 | 68,951 | 0 | 0 | 1.31 | 11.57 | 64.48 | 8.31 | 2 | 7.25 | 7.97 |
| 18:02 | 3 | 25.8 | 37 | 68,983 | 0 | 0 | 1.41 | 9.3 | 68.32 | 8.33 | 2 | 8.04 | 8.85 |
| 18:01 | 3 | 25.9 | 37 | 68,965 | 0 | 0 | 1.34 | 10.54 | 73.54 | 8.69 | 2.86 | 8.81 | 9.7 |
| 18:00 | 3 | 25.9 | 37 | 68,971 | 0 | 2.93 | 1.3 | 10.54 | 79.75 | 9.47 | 2 | 7.23 | 7.96 |
| 17:59 | 3 | 25.9 | 37 | 68,979 | 0 | 5.65 | 1.45 | 10.14 | 70.7 | 9.75 | 2 | 8.79 | 9.67 |
| 17:58 | 3 | 25.9 | 38 | 68,955 | 0 | 2.98 | 1.3 | 13.32 | 88.33 | 9.04 | 2.86 | 8.75 | 9.63 |
| 17:57 | 3 | 25.8 | 38 | 68,953 | 0 | 0.44 | 1.22 | 10.06 | 73.46 | 8.73 | 2 | 7.17 | 7.89 |
| 17:56 | 3 | 25.7 | 39 | 68,951 | 0 | 1.88 | 1.12 | 9.85 | 64.87 | 8.55 | 2.86 | 8.69 | 9.56 |
| 17:54 | 3 | 25.6 | 39 | 68,943 | 0 | 12.42 | 1.08 | 14.73 | 84.79 | 10 | 2.86 | 8.71 | 9.58 |
| 17:53 | 3 | 25.6 | 38 | 68,967 | 0 | 9.76 | 1.07 | 11.54 | 85.89 | 9.85 | 2 | 8.71 | 9.59 |
| 17:52 | 3 | 25.6 | 38 | 68,971 | 0 | 6.91 | 1.09 | 11.61 | 93.32 | 9.59 | 2 | 7.95 | 8.74 |
| 17:51 | 3 | 25.7 | 38 | 68,949 | 0 | 5.15 | 1.13 | 10.08 | 92.49 | 10.13 | 2.86 | 9.55 | 10.51 |
| 17:50 | 3 | 25.8 | 37 | 68,979 | 0 | 3.76 | 1.14 | 9.67 | 84.36 | 10.04 | 2.86 | 8.8 | 9.68 |
| 17:49 | 3 | 26 | 37 | 68,987 | 0 | 2.92 | 1.21 | 10.27 | 101.83 | 10.25 | 2.86 | 8.83 | 9.71 |
| 17:48 | 3 | 26.1 | 36 | 68,997 | 0 | 0 | 1.18 | 7.34 | 70.1 | 10.48 | 2 | 8.06 | 8.87 |
| 17:47 | 3 | 26.2 | 36 | 69,008 | 0 | 0 | 1.21 | 10.4 | 69.31 | 9.68 | 2 | 8.06 | 8.86 |
| 17:43 | 3 | 26.8 | 36 | 69,037 | 0 | 0 | 1.65 | 12.77 | 64.29 | 9.45 | 2.86 | 8.91 | 9.8 |
| 17:39 | 3 | 27.4 | 36 | 69,057 | 0 | 0 | 1.6 | 11.65 | 60.66 | 9.89 | 3.71 | 9.71 | 10.68 |
| 17:36 | 3 | 27.7 | 35 | 69,041 | 0.06 | 0 | 1.52 | 19.99 | 63.55 | 9.16 | 2 | 7.35 | 8.08 |